sensor_id;sensor_type;location;lat;lon;timestamp;P1;durP1;ratioP1;P2;durP2;ratioP2
69551;SDS011;63774;45.292;11.784;2023-11-18T00:00:06;12.30;;;8.30;;
69551;SDS011;63774;45.292;11.784;2023-11-18T00:02:37;12.10;;;8.50;;
69551;SDS011;63774;45.292;11.784;2023-11-18T00:05:02;13.20;;;8.70;;
69551;SDS011;63774;45.292;11.784;2023-11-18T00:07:27;12.20;;;8.10;;
69551;SDS011;63774;45.292;11.784;2023-11-18T00:09:54;11.70;;;8.00;;
69551;SDS011;63774;45.292;11.784;2023-11-18T00:12:19;11.10;;;8.40;;
69551;SDS011;63774;45.292;11.784;2023-11-18T00:14:44;13.40;;;8.50;;
69551;SDS011;63774;45.292;11.784;2023-11-18T00:17:10;13.10;;;8.50;;
69551;SDS011;63774;45.292;11.784;2023-11-18T00:19:37;11.00;;;8.00;;
69551;SDS011;63774;45.292;11.784;2023-11-18T00:22:07;11.70;;;8.30;;
69551;SDS011;63774;45.292;11.784;2023-11-18T00:24:32;11.40;;;8.00;;
69551;SDS011;63774;45.292;11.784;2023-11-18T00:27:02;11.60;;;7.80;;
69551;SDS011;63774;45.292;11.784;2023-11-18T00:29:34;12.30;;;8.10;;
69551;SDS011;63774;45.292;11.784;2023-11-18T00:32:00;12.60;;;8.00;;
69551;SDS011;63774;45.292;11.784;2023-11-18T00:34:26;11.70;;;7.30;;
69551;SDS011;63774;45.292;11.784;2023-11-18T00:36:55;11.10;;;7.60;;
69551;SDS011;63774;45.292;11.784;2023-11-18T00:39:23;11.10;;;8.10;;
69551;SDS011;63774;45.292;11.784;2023-11-18T00:41:49;11.50;;;7.30;;
69551;SDS011;63774;45.292;11.784;2023-11-18T00:44:14;10.70;;;7.40;;
69551;SDS011;63774;45.292;11.784;2023-11-18T00:46:40;10.60;;;7.00;;
69551;SDS011;63774;45.292;11.784;2023-11-18T00:49:05;10.20;;;7.50;;
69551;SDS011;63774;45.292;11.784;2023-11-18T00:51:31;10.10;;;7.20;;
69551;SDS011;63774;45.292;11.784;2023-11-18T00:53:56;8.80;;;6.40;;
69551;SDS011;63774;45.292;11.784;2023-11-18T00:56:22;10.00;;;7.20;;
69551;SDS011;63774;45.292;11.784;2023-11-18T00:58:50;10.90;;;6.90;;
69551;SDS011;63774;45.292;11.784;2023-11-18T01:01:15;10.80;;;6.90;;
69551;SDS011;63774;45.292;11.784;2023-11-18T01:03:43;10.30;;;7.00;;
69551;SDS011;63774;45.292;11.784;2023-11-18T01:06:09;9.70;;;6.90;;
69551;SDS011;63774;45.292;11.784;2023-11-18T01:08:34;10.00;;;6.70;;
69551;SDS011;63774;45.292;11.784;2023-11-18T01:10:59;10.00;;;6.70;;
69551;SDS011;63774;45.292;11.784;2023-11-18T01:13:25;10.40;;;6.70;;
69551;SDS011;63774;45.292;11.784;2023-11-18T01:15:53;11.40;;;6.80;;
69551;SDS011;63774;45.292;11.784;2023-11-18T01:18:18;10.20;;;7.10;;
69551;SDS011;63774;45.292;11.784;2023-11-18T01:20:43;8.50;;;6.40;;
69551;SDS011;63774;45.292;11.784;2023-11-18T01:23:12;8.50;;;5.90;;
69551;SDS011;63774;45.292;11.784;2023-11-18T01:25:38;8.90;;;6.50;;
69551;SDS011;63774;45.292;11.784;2023-11-18T01:28:05;8.30;;;6.40;;
69551;SDS011;63774;45.292;11.784;2023-11-18T01:30:34;9.30;;;6.40;;
69551;SDS011;63774;45.292;11.784;2023-11-18T01:32:59;9.70;;;6.10;;
69551;SDS011;63774;45.292;11.784;2023-11-18T01:35:29;9.40;;;6.50;;
69551;SDS011;63774;45.292;11.784;2023-11-18T01:37:54;8.90;;;5.80;;
69551;SDS011;63774;45.292;11.784;2023-11-18T01:40:23;8.90;;;6.10;;
69551;SDS011;63774;45.292;11.784;2023-11-18T01:42:54;7.70;;;5.70;;
69551;SDS011;63774;45.292;11.784;2023-11-18T01:45:20;9.00;;;5.70;;
69551;SDS011;63774;45.292;11.784;2023-11-18T01:47:51;8.60;;;6.00;;
69551;SDS011;63774;45.292;11.784;2023-11-18T01:50:18;9.20;;;5.90;;
69551;SDS011;63774;45.292;11.784;2023-11-18T01:52:43;8.60;;;5.70;;
69551;SDS011;63774;45.292;11.784;2023-11-18T01:55:09;8.00;;;5.60;;
69551;SDS011;63774;45.292;11.784;2023-11-18T01:57:35;8.30;;;5.80;;
69551;SDS011;63774;45.292;11.784;2023-11-18T02:00:02;8.50;;;5.60;;
69551;SDS011;63774;45.292;11.784;2023-11-18T02:02:31;9.30;;;5.30;;
69551;SDS011;63774;45.292;11.784;2023-11-18T02:05:02;8.50;;;5.60;;
69551;SDS011;63774;45.292;11.784;2023-11-18T02:07:32;8.60;;;5.80;;
69551;SDS011;63774;45.292;11.784;2023-11-18T02:09:59;8.10;;;5.60;;
69551;SDS011;63774;45.292;11.784;2023-11-18T02:12:33;8.70;;;5.50;;
69551;SDS011;63774;45.292;11.784;2023-11-18T02:15:02;7.30;;;5.20;;
69551;SDS011;63774;45.292;11.784;2023-11-18T02:17:29;8.30;;;5.50;;
69551;SDS011;63774;45.292;11.784;2023-11-18T02:19:56;9.10;;;5.20;;
69551;SDS011;63774;45.292;11.784;2023-11-18T02:22:22;7.20;;;4.90;;
69551;SDS011;63774;45.292;11.784;2023-11-18T02:24:48;6.80;;;4.90;;
69551;SDS011;63774;45.292;11.784;2023-11-18T02:27:14;8.00;;;4.90;;
69551;SDS011;63774;45.292;11.784;2023-11-18T02:29:41;7.30;;;4.80;;
69551;SDS011;63774;45.292;11.784;2023-11-18T02:34:33;6.60;;;4.70;;
69551;SDS011;63774;45.292;11.784;2023-11-18T02:37:00;8.00;;;4.90;;
69551;SDS011;63774;45.292;11.784;2023-11-18T02:40:01;7.30;;;5.20;;
69551;SDS011;63774;45.292;11.784;2023-11-18T02:42:19;6.80;;;4.60;;
69551;SDS011;63774;45.292;11.784;2023-11-18T02:44:47;7.40;;;4.70;;
69551;SDS011;63774;45.292;11.784;2023-11-18T02:47:14;6.70;;;4.70;;
69551;SDS011;63774;45.292;11.784;2023-11-18T02:49:41;7.30;;;5.00;;
69551;SDS011;63774;45.292;11.784;2023-11-18T02:52:06;7.30;;;4.70;;
69551;SDS011;63774;45.292;11.784;2023-11-18T02:54:34;7.70;;;5.00;;
69551;SDS011;63774;45.292;11.784;2023-11-18T02:57:00;7.70;;;4.50;;
69551;SDS011;63774;45.292;11.784;2023-11-18T02:59:26;7.00;;;4.70;;
69551;SDS011;63774;45.292;11.784;2023-11-18T03:01:54;6.80;;;4.30;;
69551;SDS011;63774;45.292;11.784;2023-11-18T03:04:20;7.00;;;4.40;;
69551;SDS011;63774;45.292;11.784;2023-11-18T03:06:45;6.70;;;4.40;;
69551;SDS011;63774;45.292;11.784;2023-11-18T03:09:10;8.70;;;4.90;;
69551;SDS011;63774;45.292;11.784;2023-11-18T03:11:36;7.30;;;4.80;;
69551;SDS011;63774;45.292;11.784;2023-11-18T03:14:01;6.80;;;4.50;;
69551;SDS011;63774;45.292;11.784;2023-11-18T03:16:29;7.20;;;4.40;;
69551;SDS011;63774;45.292;11.784;2023-11-18T03:18:55;6.30;;;4.60;;
69551;SDS011;63774;45.292;11.784;2023-11-18T03:21:20;7.10;;;5.00;;
69551;SDS011;63774;45.292;11.784;2023-11-18T03:23:45;6.80;;;4.50;;
69551;SDS011;63774;45.292;11.784;2023-11-18T03:26:11;6.70;;;4.10;;
69551;SDS011;63774;45.292;11.784;2023-11-18T03:28:36;5.70;;;4.30;;
69551;SDS011;63774;45.292;11.784;2023-11-18T03:31:05;6.60;;;4.20;;
69551;SDS011;63774;45.292;11.784;2023-11-18T03:33:31;6.30;;;4.20;;
69551;SDS011;63774;45.292;11.784;2023-11-18T03:35:57;5.10;;;3.80;;
69551;SDS011;63774;45.292;11.784;2023-11-18T03:38:22;6.90;;;4.40;;
69551;SDS011;63774;45.292;11.784;2023-11-18T03:40:48;7.40;;;4.60;;
69551;SDS011;63774;45.292;11.784;2023-11-18T03:43:14;7.40;;;4.10;;
69551;SDS011;63774;45.292;11.784;2023-11-18T03:45:40;7.00;;;4.40;;
69551;SDS011;63774;45.292;11.784;2023-11-18T03:48:05;6.00;;;4.10;;
69551;SDS011;63774;45.292;11.784;2023-11-18T03:50:31;6.00;;;4.10;;
69551;SDS011;63774;45.292;11.784;2023-11-18T03:52:57;5.40;;;3.70;;
69551;SDS011;63774;45.292;11.784;2023-11-18T03:55:22;5.90;;;4.10;;
69551;SDS011;63774;45.292;11.784;2023-11-18T03:57:47;6.60;;;4.00;;
69551;SDS011;63774;45.292;11.784;2023-11-18T04:00:15;5.70;;;3.90;;
69551;SDS011;63774;45.292;11.784;2023-11-18T04:02:40;6.90;;;4.30;;
69551;SDS011;63774;45.292;11.784;2023-11-18T04:05:06;6.10;;;3.70;;
69551;SDS011;63774;45.292;11.784;2023-11-18T04:07:33;6.10;;;3.90;;
69551;SDS011;63774;45.292;11.784;2023-11-18T04:09:58;5.60;;;3.80;;
69551;SDS011;63774;45.292;11.784;2023-11-18T04:12:25;5.70;;;3.90;;
69551;SDS011;63774;45.292;11.784;2023-11-18T04:14:52;5.90;;;4.00;;
69551;SDS011;63774;45.292;11.784;2023-11-18T04:17:20;6.50;;;3.80;;
69551;SDS011;63774;45.292;11.784;2023-11-18T04:19:45;6.60;;;3.80;;
69551;SDS011;63774;45.292;11.784;2023-11-18T04:22:10;6.70;;;4.10;;
69551;SDS011;63774;45.292;11.784;2023-11-18T04:24:36;6.20;;;3.90;;
69551;SDS011;63774;45.292;11.784;2023-11-18T04:27:01;5.70;;;4.00;;
69551;SDS011;63774;45.292;11.784;2023-11-18T04:29:27;6.60;;;3.80;;
69551;SDS011;63774;45.292;11.784;2023-11-18T04:31:52;6.00;;;4.10;;
69551;SDS011;63774;45.292;11.784;2023-11-18T04:34:24;5.30;;;3.50;;
69551;SDS011;63774;45.292;11.784;2023-11-18T04:36:50;5.40;;;3.60;;
69551;SDS011;63774;45.292;11.784;2023-11-18T04:39:18;6.50;;;3.90;;
69551;SDS011;63774;45.292;11.784;2023-11-18T04:41:44;7.70;;;3.90;;
69551;SDS011;63774;45.292;11.784;2023-11-18T04:44:09;7.30;;;4.00;;
69551;SDS011;63774;45.292;11.784;2023-11-18T04:46:35;6.20;;;4.00;;
69551;SDS011;63774;45.292;11.784;2023-11-18T04:49:17;6.00;;;4.00;;
69551;SDS011;63774;45.292;11.784;2023-11-18T04:51:42;6.20;;;4.00;;
69551;SDS011;63774;45.292;11.784;2023-11-18T04:54:11;7.10;;;3.90;;
69551;SDS011;63774;45.292;11.784;2023-11-18T04:56:36;6.20;;;3.80;;
69551;SDS011;63774;45.292;11.784;2023-11-18T04:59:05;5.50;;;3.70;;
69551;SDS011;63774;45.292;11.784;2023-11-18T05:01:33;4.90;;;3.50;;
69551;SDS011;63774;45.292;11.784;2023-11-18T05:04:06;6.30;;;4.10;;
69551;SDS011;63774;45.292;11.784;2023-11-18T05:06:39;5.90;;;3.50;;
69551;SDS011;63774;45.292;11.784;2023-11-18T05:09:04;5.90;;;3.60;;
69551;SDS011;63774;45.292;11.784;2023-11-18T05:11:35;6.20;;;3.90;;
69551;SDS011;63774;45.292;11.784;2023-11-18T05:14:01;5.80;;;3.80;;
69551;SDS011;63774;45.292;11.784;2023-11-18T05:16:29;5.20;;;3.50;;
69551;SDS011;63774;45.292;11.784;2023-11-18T05:18:54;6.10;;;3.40;;
69551;SDS011;63774;45.292;11.784;2023-11-18T05:21:19;4.80;;;3.20;;
69551;SDS011;63774;45.292;11.784;2023-11-18T05:23:47;5.50;;;3.90;;
69551;SDS011;63774;45.292;11.784;2023-11-18T05:26:14;6.00;;;3.80;;
69551;SDS011;63774;45.292;11.784;2023-11-18T05:28:39;5.70;;;3.70;;
69551;SDS011;63774;45.292;11.784;2023-11-18T05:31:04;5.90;;;3.60;;
69551;SDS011;63774;45.292;11.784;2023-11-18T05:33:31;5.30;;;3.50;;
69551;SDS011;63774;45.292;11.784;2023-11-18T05:35:56;6.00;;;3.50;;
69551;SDS011;63774;45.292;11.784;2023-11-18T05:38:22;5.20;;;3.50;;
69551;SDS011;63774;45.292;11.784;2023-11-18T05:40:48;4.70;;;3.30;;
69551;SDS011;63774;45.292;11.784;2023-11-18T05:43:26;5.60;;;3.40;;
69551;SDS011;63774;45.292;11.784;2023-11-18T05:45:54;5.40;;;3.50;;
69551;SDS011;63774;45.292;11.784;2023-11-18T05:48:38;5.20;;;3.30;;
69551;SDS011;63774;45.292;11.784;2023-11-18T05:51:04;6.00;;;3.40;;
69551;SDS011;63774;45.292;11.784;2023-11-18T05:53:30;6.30;;;3.30;;
69551;SDS011;63774;45.292;11.784;2023-11-18T05:55:59;5.80;;;3.30;;
69551;SDS011;63774;45.292;11.784;2023-11-18T05:58:24;5.00;;;3.40;;
69551;SDS011;63774;45.292;11.784;2023-11-18T06:00:52;6.00;;;3.30;;
69551;SDS011;63774;45.292;11.784;2023-11-18T06:03:20;4.90;;;3.40;;
69551;SDS011;63774;45.292;11.784;2023-11-18T06:05:52;5.00;;;3.50;;
69551;SDS011;63774;45.292;11.784;2023-11-18T06:08:21;5.60;;;3.50;;
69551;SDS011;63774;45.292;11.784;2023-11-18T06:10:49;6.10;;;3.40;;
69551;SDS011;63774;45.292;11.784;2023-11-18T06:13:19;5.10;;;3.00;;
69551;SDS011;63774;45.292;11.784;2023-11-18T06:15:48;4.40;;;2.90;;
69551;SDS011;63774;45.292;11.784;2023-11-18T06:18:17;4.30;;;3.00;;
69551;SDS011;63774;45.292;11.784;2023-11-18T06:20:46;5.00;;;3.20;;
69551;SDS011;63774;45.292;11.784;2023-11-18T06:23:11;5.50;;;3.20;;
69551;SDS011;63774;45.292;11.784;2023-11-18T06:25:43;4.90;;;3.10;;
69551;SDS011;63774;45.292;11.784;2023-11-18T06:28:11;5.00;;;3.40;;
69551;SDS011;63774;45.292;11.784;2023-11-18T06:30:39;5.20;;;3.50;;
69551;SDS011;63774;45.292;11.784;2023-11-18T06:33:04;4.80;;;3.20;;
69551;SDS011;63774;45.292;11.784;2023-11-18T06:35:31;4.60;;;2.80;;
69551;SDS011;63774;45.292;11.784;2023-11-18T06:37:59;5.10;;;3.10;;
69551;SDS011;63774;45.292;11.784;2023-11-18T06:40:24;4.70;;;2.90;;
69551;SDS011;63774;45.292;11.784;2023-11-18T06:42:52;4.80;;;3.00;;
69551;SDS011;63774;45.292;11.784;2023-11-18T06:45:19;5.20;;;2.90;;
69551;SDS011;63774;45.292;11.784;2023-11-18T06:47:47;5.00;;;3.00;;
69551;SDS011;63774;45.292;11.784;2023-11-18T06:50:14;5.10;;;3.20;;
69551;SDS011;63774;45.292;11.784;2023-11-18T06:52:40;4.90;;;3.00;;
69551;SDS011;63774;45.292;11.784;2023-11-18T06:55:10;7.70;;;3.50;;
69551;SDS011;63774;45.292;11.784;2023-11-18T06:57:36;5.70;;;3.30;;
69551;SDS011;63774;45.292;11.784;2023-11-18T07:00:02;5.20;;;3.00;;
69551;SDS011;63774;45.292;11.784;2023-11-18T07:02:33;5.90;;;3.20;;
69551;SDS011;63774;45.292;11.784;2023-11-18T07:04:59;5.60;;;3.30;;
69551;SDS011;63774;45.292;11.784;2023-11-18T07:07:24;4.90;;;3.10;;
69551;SDS011;63774;45.292;11.784;2023-11-18T07:09:49;5.70;;;3.30;;
69551;SDS011;63774;45.292;11.784;2023-11-18T07:12:15;5.60;;;3.40;;
69551;SDS011;63774;45.292;11.784;2023-11-18T07:14:40;5.70;;;3.40;;
69551;SDS011;63774;45.292;11.784;2023-11-18T07:17:05;6.80;;;3.30;;
69551;SDS011;63774;45.292;11.784;2023-11-18T07:19:31;6.20;;;3.80;;
69551;SDS011;63774;45.292;11.784;2023-11-18T07:21:58;6.60;;;3.30;;
69551;SDS011;63774;45.292;11.784;2023-11-18T07:24:24;7.70;;;3.60;;
69551;SDS011;63774;45.292;11.784;2023-11-18T07:26:50;7.00;;;3.70;;
69551;SDS011;63774;45.292;11.784;2023-11-18T07:29:17;8.60;;;3.70;;
69551;SDS011;63774;45.292;11.784;2023-11-18T07:31:45;5.10;;;3.20;;
69551;SDS011;63774;45.292;11.784;2023-11-18T07:34:10;6.70;;;4.00;;
69551;SDS011;63774;45.292;11.784;2023-11-18T07:36:35;6.10;;;3.40;;
69551;SDS011;63774;45.292;11.784;2023-11-18T07:39:01;7.90;;;3.80;;
69551;SDS011;63774;45.292;11.784;2023-11-18T07:41:27;6.20;;;3.70;;
69551;SDS011;63774;45.292;11.784;2023-11-18T07:43:53;7.00;;;3.60;;
69551;SDS011;63774;45.292;11.784;2023-11-18T07:46:20;6.30;;;3.60;;
69551;SDS011;63774;45.292;11.784;2023-11-18T07:48:47;5.50;;;3.60;;
69551;SDS011;63774;45.292;11.784;2023-11-18T07:51:12;7.40;;;4.00;;
69551;SDS011;63774;45.292;11.784;2023-11-18T07:53:39;6.10;;;3.60;;
69551;SDS011;63774;45.292;11.784;2023-11-18T07:56:04;7.10;;;3.50;;
69551;SDS011;63774;45.292;11.784;2023-11-18T07:58:32;6.60;;;3.50;;
69551;SDS011;63774;45.292;11.784;2023-11-18T08:01:01;5.00;;;3.30;;
69551;SDS011;63774;45.292;11.784;2023-11-18T08:03:29;5.80;;;3.40;;
69551;SDS011;63774;45.292;11.784;2023-11-18T08:05:56;5.60;;;3.30;;
69551;SDS011;63774;45.292;11.784;2023-11-18T08:08:24;5.90;;;3.10;;
69551;SDS011;63774;45.292;11.784;2023-11-18T08:10:49;6.90;;;3.40;;
69551;SDS011;63774;45.292;11.784;2023-11-18T08:13:16;6.60;;;3.40;;
69551;SDS011;63774;45.292;11.784;2023-11-18T08:15:42;7.00;;;3.20;;
69551;SDS011;63774;45.292;11.784;2023-11-18T08:18:07;6.00;;;3.20;;
69551;SDS011;63774;45.292;11.784;2023-11-18T08:20:35;5.90;;;3.20;;
69551;SDS011;63774;45.292;11.784;2023-11-18T08:23:00;4.70;;;3.00;;
69551;SDS011;63774;45.292;11.784;2023-11-18T08:25:26;5.50;;;3.30;;
69551;SDS011;63774;45.292;11.784;2023-11-18T08:27:51;6.30;;;3.20;;
69551;SDS011;63774;45.292;11.784;2023-11-18T08:30:16;7.80;;;2.90;;
69551;SDS011;63774;45.292;11.784;2023-11-18T08:32:43;5.30;;;3.20;;
69551;SDS011;63774;45.292;11.784;2023-11-18T08:35:09;6.00;;;3.30;;
69551;SDS011;63774;45.292;11.784;2023-11-18T08:37:37;5.30;;;3.10;;
69551;SDS011;63774;45.292;11.784;2023-11-18T08:40:03;5.40;;;2.80;;
69551;SDS011;63774;45.292;11.784;2023-11-18T08:42:29;7.00;;;2.80;;
69551;SDS011;63774;45.292;11.784;2023-11-18T08:44:57;4.90;;;3.00;;
69551;SDS011;63774;45.292;11.784;2023-11-18T08:47:24;5.20;;;3.00;;
69551;SDS011;63774;45.292;11.784;2023-11-18T08:49:49;5.10;;;2.50;;
69551;SDS011;63774;45.292;11.784;2023-11-18T08:52:14;6.40;;;3.10;;
69551;SDS011;63774;45.292;11.784;2023-11-18T08:54:43;6.00;;;2.90;;
69551;SDS011;63774;45.292;11.784;2023-11-18T08:57:28;4.50;;;2.50;;
69551;SDS011;63774;45.292;11.784;2023-11-18T09:00:14;4.40;;;2.80;;
69551;SDS011;63774;45.292;11.784;2023-11-18T09:02:59;5.50;;;2.90;;
69551;SDS011;63774;45.292;11.784;2023-11-18T09:05:26;5.10;;;2.90;;
69551;SDS011;63774;45.292;11.784;2023-11-18T09:07:54;5.80;;;2.90;;
69551;SDS011;63774;45.292;11.784;2023-11-18T09:10:22;4.60;;;2.50;;
69551;SDS011;63774;45.292;11.784;2023-11-18T09:12:48;5.70;;;2.70;;
69551;SDS011;63774;45.292;11.784;2023-11-18T09:15:13;5.50;;;2.60;;
69551;SDS011;63774;45.292;11.784;2023-11-18T09:17:47;7.50;;;2.70;;
69551;SDS011;63774;45.292;11.784;2023-11-18T09:20:13;4.10;;;2.50;;
69551;SDS011;63774;45.292;11.784;2023-11-18T09:22:43;5.30;;;2.80;;
69551;SDS011;63774;45.292;11.784;2023-11-18T09:25:09;7.20;;;2.80;;
69551;SDS011;63774;45.292;11.784;2023-11-18T09:27:35;5.60;;;2.50;;
69551;SDS011;63774;45.292;11.784;2023-11-18T09:30:01;4.90;;;2.80;;
69551;SDS011;63774;45.292;11.784;2023-11-18T09:32:27;4.20;;;2.90;;
69551;SDS011;63774;45.292;11.784;2023-11-18T09:34:52;4.30;;;2.50;;
69551;SDS011;63774;45.292;11.784;2023-11-18T09:37:18;4.90;;;2.80;;
69551;SDS011;63774;45.292;11.784;2023-11-18T09:39:43;6.20;;;2.90;;
69551;SDS011;63774;45.292;11.784;2023-11-18T09:42:10;4.10;;;2.50;;
69551;SDS011;63774;45.292;11.784;2023-11-18T09:44:39;4.20;;;2.60;;
69551;SDS011;63774;45.292;11.784;2023-11-18T09:47:07;4.80;;;2.60;;
69551;SDS011;63774;45.292;11.784;2023-11-18T09:49:36;4.40;;;2.50;;
69551;SDS011;63774;45.292;11.784;2023-11-18T09:52:04;4.20;;;2.60;;
69551;SDS011;63774;45.292;11.784;2023-11-18T09:54:33;5.40;;;2.60;;
69551;SDS011;63774;45.292;11.784;2023-11-18T09:57:03;6.10;;;2.80;;
69551;SDS011;63774;45.292;11.784;2023-11-18T10:00:16;5.20;;;2.80;;
69551;SDS011;63774;45.292;11.784;2023-11-18T10:02:23;4.70;;;2.30;;
69551;SDS011;63774;45.292;11.784;2023-11-18T10:04:49;4.80;;;2.60;;
69551;SDS011;63774;45.292;11.784;2023-11-18T10:07:25;4.10;;;2.40;;
69551;SDS011;63774;45.292;11.784;2023-11-18T10:09:57;4.00;;;2.30;;
69551;SDS011;63774;45.292;11.784;2023-11-18T10:12:23;4.00;;;2.50;;
69551;SDS011;63774;45.292;11.784;2023-11-18T10:14:49;4.50;;;2.30;;
69551;SDS011;63774;45.292;11.784;2023-11-18T10:17:17;5.70;;;2.40;;
69551;SDS011;63774;45.292;11.784;2023-11-18T10:22:22;4.60;;;2.50;;
69551;SDS011;63774;45.292;11.784;2023-11-18T10:24:48;4.60;;;2.40;;
69551;SDS011;63774;45.292;11.784;2023-11-18T10:27:14;3.70;;;2.30;;
69551;SDS011;63774;45.292;11.784;2023-11-18T10:29:40;3.70;;;2.50;;
69551;SDS011;63774;45.292;11.784;2023-11-18T10:32:06;4.70;;;2.60;;
69551;SDS011;63774;45.292;11.784;2023-11-18T10:34:45;4.40;;;2.50;;
69551;SDS011;63774;45.292;11.784;2023-11-18T10:37:10;3.60;;;2.20;;
69551;SDS011;63774;45.292;11.784;2023-11-18T10:39:36;4.30;;;2.30;;
69551;SDS011;63774;45.292;11.784;2023-11-18T10:42:02;3.70;;;2.30;;
69551;SDS011;63774;45.292;11.784;2023-11-18T10:44:28;5.10;;;2.60;;
69551;SDS011;63774;45.292;11.784;2023-11-18T10:46:56;5.60;;;2.40;;
69551;SDS011;63774;45.292;11.784;2023-11-18T10:49:34;5.10;;;2.40;;
69551;SDS011;63774;45.292;11.784;2023-11-18T10:52:01;5.30;;;2.70;;
69551;SDS011;63774;45.292;11.784;2023-11-18T10:54:28;6.50;;;2.50;;
69551;SDS011;63774;45.292;11.784;2023-11-18T10:56:53;3.80;;;2.20;;
69551;SDS011;63774;45.292;11.784;2023-11-18T10:59:21;4.80;;;2.50;;
69551;SDS011;63774;45.292;11.784;2023-11-18T11:01:52;5.10;;;2.50;;
69551;SDS011;63774;45.292;11.784;2023-11-18T11:04:17;3.80;;;2.30;;
69551;SDS011;63774;45.292;11.784;2023-11-18T11:06:46;3.60;;;2.40;;
69551;SDS011;63774;45.292;11.784;2023-11-18T11:09:20;4.00;;;2.40;;
69551;SDS011;63774;45.292;11.784;2023-11-18T11:11:52;4.30;;;2.40;;
69551;SDS011;63774;45.292;11.784;2023-11-18T11:14:20;3.50;;;2.40;;
69551;SDS011;63774;45.292;11.784;2023-11-18T11:16:47;4.30;;;2.30;;
69551;SDS011;63774;45.292;11.784;2023-11-18T11:19:21;3.80;;;2.50;;
69551;SDS011;63774;45.292;11.784;2023-11-18T11:22:12;3.80;;;2.50;;
69551;SDS011;63774;45.292;11.784;2023-11-18T11:27:34;3.60;;;2.20;;
69551;SDS011;63774;45.292;11.784;2023-11-18T11:32:45;3.60;;;2.10;;
69551;SDS011;63774;45.292;11.784;2023-11-18T11:35:18;3.70;;;2.30;;
69551;SDS011;63774;45.292;11.784;2023-11-18T11:37:46;3.80;;;2.10;;
69551;SDS011;63774;45.292;11.784;2023-11-18T11:40:13;3.80;;;2.30;;
69551;SDS011;63774;45.292;11.784;2023-11-18T11:42:47;3.60;;;2.30;;
69551;SDS011;63774;45.292;11.784;2023-11-18T11:45:15;4.20;;;2.20;;
69551;SDS011;63774;45.292;11.784;2023-11-18T11:47:54;3.80;;;2.40;;
69551;SDS011;63774;45.292;11.784;2023-11-18T11:50:38;4.80;;;2.60;;
69551;SDS011;63774;45.292;11.784;2023-11-18T11:53:13;3.30;;;2.20;;
69551;SDS011;63774;45.292;11.784;2023-11-18T11:55:51;3.80;;;2.30;;
69551;SDS011;63774;45.292;11.784;2023-11-18T11:58:27;3.10;;;2.10;;
69551;SDS011;63774;45.292;11.784;2023-11-18T12:00:53;3.80;;;2.50;;
69551;SDS011;63774;45.292;11.784;2023-11-18T12:03:21;4.30;;;2.30;;
69551;SDS011;63774;45.292;11.784;2023-11-18T12:05:47;4.70;;;2.20;;
69551;SDS011;63774;45.292;11.784;2023-11-18T12:08:13;3.90;;;2.40;;
69551;SDS011;63774;45.292;11.784;2023-11-18T12:10:38;4.60;;;2.60;;
69551;SDS011;63774;45.292;11.784;2023-11-18T12:13:09;4.70;;;2.40;;
69551;SDS011;63774;45.292;11.784;2023-11-18T12:15:48;4.10;;;2.20;;
69551;SDS011;63774;45.292;11.784;2023-11-18T12:18:19;4.60;;;2.30;;
69551;SDS011;63774;45.292;11.784;2023-11-18T12:20:47;4.50;;;2.30;;
69551;SDS011;63774;45.292;11.784;2023-11-18T12:23:13;2.60;;;2.00;;
69551;SDS011;63774;45.292;11.784;2023-11-18T12:25:46;4.50;;;2.30;;
69551;SDS011;63774;45.292;11.784;2023-11-18T12:28:15;3.70;;;2.20;;
69551;SDS011;63774;45.292;11.784;2023-11-18T12:33:17;3.90;;;2.50;;
69551;SDS011;63774;45.292;11.784;2023-11-18T12:41:01;4.10;;;2.30;;
69551;SDS011;63774;45.292;11.784;2023-11-18T12:48:56;4.40;;;2.10;;
69551;SDS011;63774;45.292;11.784;2023-11-18T12:51:23;4.20;;;2.30;;
69551;SDS011;63774;45.292;11.784;2023-11-18T12:53:50;4.50;;;2.30;;
69551;SDS011;63774;45.292;11.784;2023-11-18T12:56:19;4.10;;;2.40;;
69551;SDS011;63774;45.292;11.784;2023-11-18T12:58:48;4.40;;;2.30;;
69551;SDS011;63774;45.292;11.784;2023-11-18T13:01:13;3.80;;;2.20;;
69551;SDS011;63774;45.292;11.784;2023-11-18T13:03:40;3.40;;;2.30;;
69551;SDS011;63774;45.292;11.784;2023-11-18T13:06:07;3.20;;;2.20;;
69551;SDS011;63774;45.292;11.784;2023-11-18T13:08:33;5.10;;;2.30;;
69551;SDS011;63774;45.292;11.784;2023-11-18T13:10:58;4.20;;;2.20;;
69551;SDS011;63774;45.292;11.784;2023-11-18T13:13:30;4.50;;;2.30;;
69551;SDS011;63774;45.292;11.784;2023-11-18T13:15:57;3.70;;;2.20;;
69551;SDS011;63774;45.292;11.784;2023-11-18T13:18:23;4.40;;;2.10;;
69551;SDS011;63774;45.292;11.784;2023-11-18T13:20:55;4.00;;;2.20;;
69551;SDS011;63774;45.292;11.784;2023-11-18T13:23:24;3.80;;;2.30;;
69551;SDS011;63774;45.292;11.784;2023-11-18T13:25:49;3.80;;;2.10;;
69551;SDS011;63774;45.292;11.784;2023-11-18T13:28:15;3.50;;;2.10;;
69551;SDS011;63774;45.292;11.784;2023-11-18T13:30:41;4.20;;;2.30;;
69551;SDS011;63774;45.292;11.784;2023-11-18T13:33:07;3.70;;;2.30;;
69551;SDS011;63774;45.292;11.784;2023-11-18T13:35:33;3.60;;;2.30;;
69551;SDS011;63774;45.292;11.784;2023-11-18T13:37:59;4.00;;;2.30;;
69551;SDS011;63774;45.292;11.784;2023-11-18T13:40:25;4.90;;;2.10;;
69551;SDS011;63774;45.292;11.784;2023-11-18T13:43:03;3.60;;;2.30;;
69551;SDS011;63774;45.292;11.784;2023-11-18T13:45:41;3.00;;;2.00;;
69551;SDS011;63774;45.292;11.784;2023-11-18T13:48:07;4.40;;;2.40;;
69551;SDS011;63774;45.292;11.784;2023-11-18T13:50:36;4.30;;;2.50;;
69551;SDS011;63774;45.292;11.784;2023-11-18T13:53:03;3.70;;;2.20;;
69551;SDS011;63774;45.292;11.784;2023-11-18T13:55:28;4.40;;;2.30;;
69551;SDS011;63774;45.292;11.784;2023-11-18T13:57:57;4.10;;;2.20;;
69551;SDS011;63774;45.292;11.784;2023-11-18T14:00:27;4.60;;;2.40;;
69551;SDS011;63774;45.292;11.784;2023-11-18T14:02:57;4.20;;;2.40;;
69551;SDS011;63774;45.292;11.784;2023-11-18T14:05:23;4.10;;;2.30;;
69551;SDS011;63774;45.292;11.784;2023-11-18T14:07:51;4.50;;;2.80;;
69551;SDS011;63774;45.292;11.784;2023-11-18T14:10:17;4.20;;;2.30;;
69551;SDS011;63774;45.292;11.784;2023-11-18T14:13:03;3.80;;;2.40;;
69551;SDS011;63774;45.292;11.784;2023-11-18T14:15:30;5.20;;;2.90;;
69551;SDS011;63774;45.292;11.784;2023-11-18T14:18:00;5.50;;;2.80;;
69551;SDS011;63774;45.292;11.784;2023-11-18T14:20:27;4.00;;;2.50;;
69551;SDS011;63774;45.292;11.784;2023-11-18T14:22:52;4.80;;;2.80;;
69551;SDS011;63774;45.292;11.784;2023-11-18T14:25:19;5.90;;;2.90;;
69551;SDS011;63774;45.292;11.784;2023-11-18T14:27:44;4.90;;;2.50;;
69551;SDS011;63774;45.292;11.784;2023-11-18T14:30:10;4.60;;;2.70;;
69551;SDS011;63774;45.292;11.784;2023-11-18T14:32:36;4.60;;;2.70;;
69551;SDS011;63774;45.292;11.784;2023-11-18T14:35:03;4.70;;;2.60;;
69551;SDS011;63774;45.292;11.784;2023-11-18T14:37:31;4.30;;;2.60;;
69551;SDS011;63774;45.292;11.784;2023-11-18T14:39:58;4.30;;;2.60;;
69551;SDS011;63774;45.292;11.784;2023-11-18T14:42:23;5.20;;;2.90;;
69551;SDS011;63774;45.292;11.784;2023-11-18T14:44:48;4.10;;;2.50;;
69551;SDS011;63774;45.292;11.784;2023-11-18T14:47:17;4.50;;;2.60;;
69551;SDS011;63774;45.292;11.784;2023-11-18T14:49:45;4.10;;;2.70;;
69551;SDS011;63774;45.292;11.784;2023-11-18T14:52:10;7.40;;;2.60;;
69551;SDS011;63774;45.292;11.784;2023-11-18T14:54:38;5.70;;;2.70;;
69551;SDS011;63774;45.292;11.784;2023-11-18T14:57:06;4.30;;;2.80;;
69551;SDS011;63774;45.292;11.784;2023-11-18T14:59:32;3.60;;;2.30;;